createdAt,value
2023-02-02T00:01:20.357Z,98652.63
2023-02-02T00:03:51.253Z,98651.88
2023-02-02T00:06:19.452Z,98652.88
2023-02-02T00:08:46.362Z,98648.59
2023-02-02T00:11:13.141Z,98653.88
2023-02-02T00:13:40.739Z,98659.84
2023-02-02T00:16:26.039Z,98650.97
2023-02-02T00:18:57.914Z,98661.66
2023-02-02T00:21:25.103Z,98662.69
2023-02-02T00:23:51.618Z,98665.19
2023-02-02T00:26:18.801Z,98653.78
2023-02-02T00:28:45.631Z,98646.06
2023-02-02T00:31:12.156Z,98659.13
2023-02-02T00:33:38.687Z,98646.88
2023-02-02T00:36:05.627Z,98652.09
2023-02-02T00:38:32.529Z,98648.44
2023-02-02T00:40:58.999Z,98656.50
2023-02-02T00:43:25.483Z,98640.75
2023-02-02T00:45:54.025Z,98656.34
2023-02-02T00:48:20.487Z,98655.28
2023-02-02T00:50:46.974Z,98664.84
2023-02-02T00:53:16.035Z,98666.78
2023-02-02T00:55:42.518Z,98664.22
2023-02-02T00:58:09.017Z,98650.19
2023-02-02T01:00:35.919Z,98655.25
2023-02-02T01:03:04.451Z,98658.81
2023-02-02T01:05:32.020Z,98666.69
2023-02-02T01:07:58.485Z,98662.31
2023-02-02T01:10:25.285Z,98653.63
2023-02-02T01:12:51.925Z,98671.88
2023-02-02T01:15:21.187Z,98669.41
2023-02-02T01:17:47.686Z,98679.06
2023-02-02T01:20:19.857Z,98664.09
2023-02-02T01:22:53.057Z,98677.19
2023-02-02T01:25:23.427Z,98670.41
2023-02-02T01:27:50.106Z,98671.25
2023-02-02T01:30:16.625Z,98662.34
2023-02-02T01:32:43.187Z,98687.84
2023-02-02T01:35:10.255Z,98690.47
2023-02-02T01:37:39.822Z,98685.25
2023-02-02T01:40:07.347Z,98686.06
2023-02-02T01:42:33.834Z,98692.88
2023-02-02T01:45:06.465Z,98686.78
2023-02-02T01:47:44.129Z,98705.19
2023-02-02T01:50:13.209Z,98700.97
2023-02-02T01:52:41.017Z,98693.16
2023-02-02T01:55:12.812Z,98721.03
2023-02-02T01:57:47.520Z,98711.31
2023-02-02T02:00:15.657Z,98719.31
2023-02-02T02:02:48.485Z,98716.66
2023-02-02T02:05:26.515Z,98718.44
2023-02-02T02:07:56.671Z,98721.78
2023-02-02T02:10:23.428Z,98721.63
2023-02-02T02:12:50.143Z,98725.09
2023-02-02T02:15:35.143Z,98726.00
2023-02-02T02:18:40.752Z,98725.28
2023-02-02T02:22:07.669Z,98724.50
2023-02-02T02:25:01.787Z,98716.84
2023-02-02T02:27:44.147Z,98721.97
2023-02-02T02:30:29.217Z,98719.25
2023-02-02T02:33:03.186Z,98726.19
2023-02-02T02:36:27.876Z,98728.00
2023-02-02T02:39:12.791Z,98725.34
2023-02-02T02:41:45.252Z,98725.34
2023-02-02T02:44:16.058Z,98724.44
2023-02-02T02:46:43.400Z,98727.16
2023-02-02T02:49:11.887Z,98743.06
2023-02-02T02:51:49.147Z,98735.88
2023-02-02T02:54:49.754Z,98748.03
2023-02-02T02:57:22.375Z,98739.34
2023-02-02T02:59:57.044Z,98740.16
2023-02-02T03:03:00.266Z,98744.66
2023-02-02T03:05:37.027Z,98749.06
2023-02-02T03:08:22.513Z,98754.31
2023-02-02T03:10:49.317Z,98743.69
2023-02-02T03:13:17.027Z,98745.38
2023-02-02T03:15:45.088Z,98752.47
2023-02-02T03:18:13.872Z,98738.50
2023-02-02T03:20:40.390Z,98749.88
2023-02-02T03:23:06.885Z,98759.31
2023-02-02T03:25:33.586Z,98750.66
2023-02-02T03:28:00.679Z,98760.19
2023-02-02T03:30:27.586Z,98773.41
2023-02-02T03:32:54.258Z,98767.41
2023-02-02T03:35:20.897Z,98771.84
2023-02-02T03:37:48.057Z,98778.84
2023-02-02T03:40:15.297Z,98778.69
2023-02-02T03:42:41.795Z,98778.78
2023-02-02T03:45:08.828Z,98792.72
2023-02-02T03:47:35.388Z,98782.94
2023-02-02T03:50:01.879Z,98791.09
2023-02-02T03:52:28.396Z,98785.03
2023-02-02T03:54:54.844Z,98786.66
2023-02-02T03:57:21.280Z,98793.50
2023-02-02T03:59:47.812Z,98788.16
2023-02-02T04:02:14.276Z,98801.34
2023-02-02T04:04:40.856Z,98804.88
2023-02-02T04:07:07.433Z,98811.16
2023-02-02T04:09:33.971Z,98820.59
2023-02-02T04:12:00.473Z,98808.28
2023-02-02T04:14:26.981Z,98823.94
2023-02-02T04:16:53.498Z,98810.84
2023-02-02T04:19:20.014Z,98824.00
2023-02-02T04:21:46.541Z,98822.25
2023-02-02T04:24:14.216Z,98818.63
2023-02-02T04:26:41.536Z,98828.22
2023-02-02T04:29:08.296Z,98829.25
2023-02-02T04:31:37.552Z,98823.06
2023-02-02T04:34:05.019Z,98827.47
2023-02-02T04:36:31.562Z,98830.13
2023-02-02T04:38:58.106Z,98813.56
2023-02-02T04:41:24.884Z,98824.84
2023-02-02T04:43:51.830Z,98832.69
2023-02-02T04:46:18.469Z,98829.09
2023-02-02T04:48:44.987Z,98830.94
2023-02-02T04:51:14.452Z,98830.88
2023-02-02T04:53:42.624Z,98841.47
2023-02-02T04:56:13.285Z,98840.53
2023-02-02T04:58:40.050Z,98835.25
2023-02-02T05:01:17.785Z,98835.22
2023-02-02T05:03:45.192Z,98845.75
2023-02-02T05:06:12.788Z,98849.16
2023-02-02T05:08:43.057Z,98847.53
2023-02-02T05:11:11.793Z,98859.72
2023-02-02T05:13:38.513Z,98849.34
2023-02-02T05:16:05.543Z,98862.28
2023-02-02T05:18:32.247Z,98858.97
2023-02-02T05:21:03.310Z,98865.88
2023-02-02T05:23:30.462Z,98867.59
2023-02-02T05:25:57.523Z,98873.97
2023-02-02T05:28:24.727Z,98870.47
2023-02-02T05:30:51.892Z,98871.22
2023-02-02T05:33:19.695Z,98872.91
2023-02-02T05:35:47.948Z,98874.91
2023-02-02T05:38:15.210Z,98864.22
2023-02-02T05:40:42.012Z,98879.91
2023-02-02T05:43:08.504Z,98872.88
2023-02-02T05:45:35.145Z,98873.78
2023-02-02T05:48:01.640Z,98868.59
2023-02-02T05:50:28.190Z,98869.44
2023-02-02T05:52:54.710Z,98872.97
2023-02-02T05:55:21.344Z,98883.34
2023-02-02T05:57:47.882Z,98884.16
2023-02-02T06:00:14.757Z,98886.84
2023-02-02T06:02:41.303Z,98895.84
2023-02-02T06:05:08.036Z,98894.31
2023-02-02T06:07:34.555Z,98896.81
2023-02-02T06:10:01.016Z,98895.00
2023-02-02T06:12:27.519Z,98896.72
2023-02-02T06:14:53.971Z,98906.44
2023-02-02T06:17:23.130Z,98912.47
2023-02-02T06:19:49.564Z,98903.03
2023-02-02T06:22:16.102Z,98906.44
2023-02-02T06:24:42.569Z,98907.97
2023-02-02T06:27:12.592Z,98901.88
2023-02-02T06:29:39.079Z,98906.22
2023-02-02T06:32:05.573Z,98898.38
2023-02-02T06:34:32.065Z,98907.97
2023-02-02T06:36:58.585Z,98913.09
2023-02-02T06:39:25.097Z,98909.75
2023-02-02T06:41:52.097Z,98919.34
2023-02-02T06:44:21.692Z,98923.75
2023-02-02T06:46:50.645Z,98920.16
2023-02-02T06:49:17.201Z,98924.53
2023-02-02T06:51:43.746Z,98926.22
2023-02-02T06:54:10.241Z,98931.47
2023-02-02T06:56:36.719Z,98933.34
2023-02-02T06:59:03.481Z,98929.09
2023-02-02T07:01:30.050Z,98933.38
2023-02-02T07:03:56.636Z,98944.66
2023-02-02T07:06:26.417Z,98942.09
2023-02-02T07:09:01.040Z,98949.00
2023-02-02T07:11:30.663Z,98936.81
2023-02-02T07:13:57.544Z,98948.16
2023-02-02T07:16:24.008Z,98943.06
2023-02-02T07:18:50.597Z,98954.53
2023-02-02T07:21:25.360Z,98951.69
2023-02-02T07:23:51.827Z,98969.25
2023-02-02T07:26:19.989Z,98968.44
2023-02-02T07:28:46.697Z,98971.19
2023-02-02T07:31:19.250Z,98981.66
2023-02-02T07:33:47.114Z,98979.13
2023-02-02T07:36:16.891Z,98985.22
2023-02-02T07:38:45.124Z,98981.75
2023-02-02T07:41:11.982Z,98985.28
2023-02-02T07:43:39.203Z,98989.66
2023-02-02T07:46:08.309Z,98991.41
2023-02-02T07:48:35.224Z,98989.66
2023-02-02T07:51:06.715Z,98997.47
2023-02-02T07:53:33.449Z,98990.44
2023-02-02T07:56:36.514Z,98997.63
2023-02-02T07:59:04.294Z,98999.28
2023-02-02T08:01:30.871Z,98997.63
2023-02-02T08:04:00.511Z,99002.03
2023-02-02T08:06:33.632Z,99004.53
2023-02-02T08:09:01.630Z,99005.50
2023-02-02T08:11:28.575Z,99008.91
2023-02-02T08:14:00.087Z,99014.34
2023-02-02T08:16:27.768Z,99014.31
2023-02-02T08:18:54.817Z,99021.31
2023-02-02T08:21:22.117Z,99016.13
2023-02-02T08:23:48.926Z,99022.28
2023-02-02T08:26:33.717Z,99024.91
2023-02-02T08:29:03.227Z,99029.53
2023-02-02T08:31:35.292Z,99034.88
2023-02-02T08:34:02.141Z,99036.75
2023-02-02T08:36:29.999Z,99048.88
2023-02-02T08:39:02.889Z,99048.91
2023-02-02T08:41:30.896Z,99045.41
2023-02-02T08:43:57.423Z,99046.28
2023-02-02T08:46:24.144Z,99048.19
2023-02-02T08:48:50.715Z,99054.31
2023-02-02T08:51:19.524Z,99057.81
2023-02-02T08:53:49.539Z,99061.34
2023-02-02T08:56:18.706Z,99065.81
2023-02-02T08:58:50.297Z,99073.63
2023-02-02T09:01:25.667Z,99066.66
2023-02-02T09:03:56.973Z,99070.19
2023-02-02T09:06:29.039Z,99070.22
2023-02-02T09:08:55.526Z,99065.88
2023-02-02T09:11:23.073Z,99071.16
2023-02-02T09:13:55.406Z,99078.16
2023-02-02T09:16:22.639Z,99067.69
2023-02-02T09:18:49.125Z,99068.63
2023-02-02T09:21:19.804Z,99076.59
2023-02-02T09:23:47.472Z,99084.56
2023-02-02T09:26:19.843Z,99090.69
2023-02-02T09:28:49.723Z,99089.88
2023-02-02T09:31:16.543Z,99089.88
2023-02-02T09:33:43.885Z,99090.75
2023-02-02T09:36:28.789Z,99097.69
2023-02-02T09:38:55.285Z,99094.22
2023-02-02T09:41:36.984Z,99105.53
2023-02-02T09:44:12.574Z,99109.06
2023-02-02T09:47:17.577Z,99110.09
2023-02-02T09:49:54.378Z,99113.66
2023-02-02T09:52:29.693Z,99118.91
2023-02-02T09:55:03.303Z,99125.09
2023-02-02T09:57:37.772Z,99122.53
2023-02-02T10:00:06.848Z,99134.72
2023-02-02T10:02:40.028Z,99131.19
2023-02-02T10:05:15.573Z,99132.00
2023-02-02T10:07:46.325Z,99139.00
2023-02-02T10:10:22.756Z,99141.56
2023-02-02T10:12:57.707Z,99142.41
2023-02-02T10:15:40.760Z,99157.34
2023-02-02T10:18:13.221Z,99151.34
2023-02-02T10:20:45.650Z,99154.81
2023-02-02T10:23:34.424Z,99160.91
2023-02-02T10:26:03.522Z,99154.78
2023-02-02T10:28:42.534Z,99150.41
2023-02-02T10:31:41.502Z,99152.09
2023-02-02T10:34:17.160Z,99158.16
2023-02-02T10:36:46.538Z,99169.50
2023-02-02T10:39:26.547Z,99166.03
2023-02-02T10:42:11.297Z,99161.66
2023-02-02T10:44:47.655Z,99163.41
2023-02-02T10:47:22.248Z,99159.03
2023-02-02T10:50:02.232Z,99171.31
2023-02-02T10:52:34.192Z,99168.69
2023-02-02T10:55:16.187Z,99168.63
2023-02-02T10:57:57.327Z,99175.91
2023-02-02T11:00:35.320Z,99166.13
2023-02-02T11:03:04.726Z,99173.09
2023-02-02T11:05:50.316Z,99177.50
2023-02-02T11:08:20.731Z,99179.28
2023-02-02T11:10:52.021Z,99174.09
2023-02-02T11:13:50.055Z,99179.44
2023-02-02T11:16:16.643Z,99181.19
2023-02-02T11:18:44.584Z,99183.78
2023-02-02T11:21:35.112Z,99189.06
2023-02-02T11:24:29.270Z,99195.25
2023-02-02T11:26:59.623Z,99200.56
2023-02-02T11:29:47.901Z,99198.88
2023-02-02T11:32:35.159Z,99204.09
2023-02-02T11:35:04.725Z,99206.66
2023-02-02T11:37:32.947Z,99216.31
2023-02-02T11:40:28.361Z,99210.25
2023-02-02T11:42:57.260Z,99208.44
2023-02-02T11:45:41.979Z,99214.56
2023-02-02T11:48:15.449Z,99213.66
2023-02-02T11:50:57.074Z,99214.53
2023-02-02T11:53:32.848Z,99220.69
2023-02-02T11:56:04.146Z,99214.59
2023-02-02T11:58:55.980Z,99211.97
2023-02-02T12:01:29.374Z,99216.28
2023-02-02T12:04:01.828Z,99217.16
2023-02-02T12:06:38.346Z,99206.63
2023-02-02T12:09:17.721Z,99212.72
2023-02-02T12:12:05.288Z,99211.00
2023-02-02T12:14:50.153Z,99207.56
2023-02-02T12:17:32.952Z,99211.06
2023-02-02T12:20:27.975Z,99218.97
2023-02-02T12:23:16.105Z,99213.88
2023-02-02T12:26:02.418Z,99219.00
2023-02-02T12:28:44.093Z,99212.75
2023-02-02T12:31:13.658Z,99199.66
2023-02-02T12:33:43.220Z,99211.09
2023-02-02T12:36:24.321Z,99205.75
2023-02-02T12:39:18.729Z,99212.69
2023-02-02T12:42:19.420Z,99212.69
2023-02-02T12:45:07.425Z,99210.91
2023-02-02T12:47:55.692Z,99213.50
2023-02-02T12:50:43.482Z,99216.16
2023-02-02T12:53:13.316Z,99213.50
2023-02-02T12:55:55.701Z,99217.09
2023-02-02T12:58:34.536Z,99221.59
2023-02-02T13:01:14.038Z,99226.81
2023-02-02T13:03:49.336Z,99228.72
2023-02-02T13:06:46.899Z,99225.28
2023-02-02T13:09:31.847Z,99220.91
2023-02-02T13:12:08.440Z,99228.69
2023-02-02T13:14:45.436Z,99223.31
2023-02-02T13:17:30.016Z,99224.13
2023-02-02T13:20:03.226Z,99235.69
2023-02-02T13:22:34.690Z,99232.25
2023-02-02T13:25:05.004Z,99235.78
2023-02-02T13:27:32.830Z,99242.78
2023-02-02T13:30:13.733Z,99247.19
2023-02-02T13:32:45.267Z,99241.13
2023-02-02T13:35:20.346Z,99245.44
2023-02-02T13:38:01.466Z,99254.13
2023-02-02T13:40:33.466Z,99251.47
2023-02-02T13:43:06.170Z,99252.28
2023-02-02T13:46:05.147Z,99240.13
2023-02-02T13:48:44.006Z,99250.41
2023-02-02T13:51:32.072Z,99264.31
2023-02-02T13:54:07.665Z,99250.16
2023-02-02T13:56:53.991Z,99259.84
2023-02-02T13:59:49.640Z,99259.88
2023-02-02T14:02:29.960Z,99266.03
2023-02-02T14:04:59.909Z,99260.81
2023-02-02T14:07:33.397Z,99258.22
2023-02-02T14:10:00.217Z,99261.75
2023-02-02T14:12:33.006Z,99262.69
2023-02-02T14:15:00.466Z,99262.84
2023-02-02T14:17:26.862Z,99275.16
2023-02-02T14:19:55.817Z,99265.63
2023-02-02T14:22:54.463Z,99273.63
2023-02-02T14:25:29.947Z,99278.06
2023-02-02T14:27:59.275Z,99276.31
2023-02-02T14:30:32.731Z,99280.69
2023-02-02T14:33:23.140Z,99284.91
2023-02-02T14:35:49.583Z,99282.22
2023-02-02T14:38:22.177Z,99290.84
2023-02-02T14:41:05.230Z,99285.44
2023-02-02T14:43:50.967Z,99288.06
2023-02-02T14:46:38.436Z,99294.16
2023-02-02T14:49:04.879Z,99303.91
2023-02-02T14:51:34.905Z,99305.59
2023-02-02T14:54:08.389Z,99308.13
2023-02-02T14:56:49.924Z,99317.75
2023-02-02T14:59:20.271Z,99311.47
2023-02-02T15:01:59.406Z,99319.25
2023-02-02T15:04:27.559Z,99320.94
2023-02-02T15:06:54.664Z,99321.72
2023-02-02T15:09:23.799Z,99326.00
2023-02-02T15:12:01.065Z,99336.38
2023-02-02T15:14:50.570Z,99330.19
2023-02-02T15:17:50.093Z,99335.38
2023-02-02T15:20:20.788Z,99330.09
2023-02-02T15:22:56.871Z,99334.50
2023-02-02T15:25:42.056Z,99341.41
2023-02-02T15:28:11.532Z,99349.19
2023-02-02T15:30:43.908Z,99347.53
2023-02-02T15:33:29.668Z,99358.06
2023-02-02T15:36:00.034Z,99361.53
2023-02-02T15:38:34.715Z,99360.59
2023-02-02T15:41:21.390Z,99360.59
2023-02-02T15:43:48.136Z,99372.75
2023-02-02T15:46:24.245Z,99382.31
2023-02-02T15:49:33.283Z,99392.72
2023-02-02T15:52:10.469Z,99392.50
2023-02-02T15:54:40.229Z,99405.69
2023-02-02T15:57:47.978Z,99406.41
2023-02-02T16:00:43.773Z,99414.06
2023-02-02T16:03:19.531Z,99414.78
2023-02-02T16:05:54.215Z,99411.28
2023-02-02T16:08:29.760Z,99415.66
2023-02-02T16:11:06.082Z,99418.22
2023-02-02T16:13:36.146Z,99418.13
2023-02-02T16:16:07.744Z,99425.06
2023-02-02T16:18:35.624Z,99428.50
2023-02-02T16:21:06.919Z,99432.94
2023-02-02T16:23:37.081Z,99429.41
2023-02-02T16:26:06.411Z,99438.94
2023-02-02T16:28:34.089Z,99443.16
2023-02-02T16:31:02.101Z,99448.25
2023-02-02T16:33:29.949Z,99456.03
2023-02-02T16:35:57.201Z,99454.22
2023-02-02T16:38:26.483Z,99451.66
2023-02-02T16:41:04.759Z,99455.09
2023-02-02T16:43:31.503Z,99467.31
2023-02-02T16:46:01.201Z,99462.03
2023-02-02T16:48:36.641Z,99469.91
2023-02-02T16:51:15.315Z,99468.97
2023-02-02T16:53:45.605Z,99483.78
2023-02-02T16:56:43.272Z,99481.22
2023-02-02T16:59:16.289Z,99489.91
2023-02-02T17:01:49.739Z,99489.97
2023-02-02T17:04:31.833Z,99485.66
2023-02-02T17:07:06.224Z,99490.06
2023-02-02T17:09:37.935Z,99487.44
2023-02-02T17:12:32.611Z,99483.97
2023-02-02T17:15:05.648Z,99483.09
2023-02-02T17:17:32.214Z,99481.31
2023-02-02T17:19:58.800Z,99488.31
2023-02-02T17:22:27.761Z,99482.19
2023-02-02T17:24:54.581Z,99476.97
2023-02-02T17:27:34.613Z,99473.50
2023-02-02T17:30:02.723Z,99482.25
2023-02-02T17:32:29.202Z,99479.63
2023-02-02T17:34:55.893Z,99479.63
2023-02-02T17:37:22.447Z,99473.53
2023-02-02T17:39:50.668Z,99482.25
2023-02-02T17:42:27.983Z,99487.44
2023-02-02T17:44:54.523Z,99491.84
2023-02-02T17:47:21.058Z,99502.38
2023-02-02T17:49:47.562Z,99497.13
2023-02-02T17:52:14.173Z,99495.44
2023-02-02T17:54:40.687Z,99500.59
2023-02-02T17:57:07.195Z,99502.31
2023-02-02T17:59:36.418Z,99508.44
2023-02-02T18:02:02.943Z,99507.50
2023-02-02T18:04:29.530Z,99503.06
2023-02-02T18:06:56.017Z,99509.94
2023-02-02T18:09:22.551Z,99508.03
2023-02-02T18:11:49.820Z,99515.00
2023-02-02T18:14:16.448Z,99505.19
2023-02-02T18:16:42.929Z,99518.16
2023-02-02T18:19:10.343Z,99511.91
2023-02-02T18:21:36.878Z,99512.81
2023-02-02T18:24:03.717Z,99506.59
2023-02-02T18:26:31.534Z,99515.19
2023-02-02T18:28:59.208Z,99514.94
2023-02-02T18:31:27.087Z,99507.94
2023-02-02T18:33:54.404Z,99517.63
2023-02-02T18:36:21.817Z,99510.66
2023-02-02T18:38:49.153Z,99504.56
2023-02-02T18:41:17.344Z,99507.16
2023-02-02T18:43:45.471Z,99508.81
2023-02-02T18:46:13.869Z,99506.16
2023-02-02T18:48:41.174Z,99511.28
2023-02-02T18:51:18.782Z,99494.69
2023-02-02T18:53:46.911Z,99493.81
2023-02-02T18:56:15.156Z,99485.13
2023-02-02T18:58:42.235Z,99485.13
2023-02-02T19:01:16.856Z,99485.94
2023-02-02T19:03:48.466Z,99480.72
2023-02-02T19:06:34.026Z,99478.91
2023-02-02T19:09:00.525Z,99477.13
2023-02-02T19:11:36.734Z,99480.63
2023-02-02T19:14:13.741Z,99497.13
2023-02-02T19:16:40.733Z,99489.13
2023-02-02T19:19:15.945Z,99493.38
2023-02-02T19:21:43.207Z,99492.53
2023-02-02T19:24:13.728Z,99505.81
2023-02-02T19:26:49.372Z,99495.34
2023-02-02T19:29:28.653Z,99491.81
2023-02-02T19:32:06.020Z,99491.81
2023-02-02T19:34:33.508Z,99497.03
2023-02-02T19:37:11.924Z,99491.75
2023-02-02T19:39:38.511Z,99496.16
2023-02-02T19:42:11.373Z,99501.38
2023-02-02T19:44:40.552Z,99498.75
2023-02-02T19:47:27.697Z,99489.03
2023-02-02T19:49:56.927Z,99489.03
2023-02-02T19:52:25.689Z,99495.16
2023-02-02T19:54:53.747Z,99488.16
2023-02-02T19:57:32.961Z,99488.00
2023-02-02T20:00:11.354Z,99482.78
2023-02-02T20:02:52.016Z,99474.13
2023-02-02T20:05:24.635Z,99482.91
2023-02-02T20:08:00.644Z,99482.81
2023-02-02T20:10:39.588Z,99470.53
2023-02-02T20:13:20.293Z,99468.84
2023-02-02T20:15:48.960Z,99457.53
2023-02-02T20:18:26.517Z,99461.03
2023-02-02T20:20:55.715Z,99456.72
2023-02-02T20:23:27.656Z,99446.97
2023-02-02T20:25:54.038Z,99449.59
2023-02-02T20:28:54.568Z,99447.59
2023-02-02T20:31:24.778Z,99443.91
2023-02-02T20:33:56.049Z,99443.03
2023-02-02T20:36:42.723Z,99427.31
2023-02-02T20:39:22.017Z,99426.50
2023-02-02T20:41:48.884Z,99432.47
2023-02-02T20:44:15.448Z,99429.91
2023-02-02T20:46:41.917Z,99418.50
2023-02-02T20:49:08.663Z,99418.75
2023-02-02T20:51:35.148Z,99407.22
2023-02-02T20:54:01.787Z,99397.59
2023-02-02T20:56:28.265Z,99396.81
2023-02-02T20:58:57.560Z,99392.47
2023-02-02T21:01:25.284Z,99393.34
2023-02-02T21:03:51.874Z,99400.50
2023-02-02T21:06:18.453Z,99395.47
2023-02-02T21:08:54.947Z,99391.19
2023-02-02T21:11:21.449Z,99391.34
2023-02-02T21:13:55.168Z,99392.94
2023-02-02T21:16:22.471Z,99385.22
2023-02-02T21:18:49.086Z,99383.63
2023-02-02T21:21:19.404Z,99385.50
2023-02-02T21:23:52.677Z,99385.63
2023-02-02T21:26:27.201Z,99380.44
2023-02-02T21:28:56.535Z,99363.88
2023-02-02T21:31:23.626Z,99364.75
2023-02-02T21:33:50.700Z,99362.22
2023-02-02T21:36:28.174Z,99360.47
2023-02-02T21:39:01.673Z,99357.78
2023-02-02T21:41:30.842Z,99355.25
2023-02-02T21:43:58.604Z,99342.34
2023-02-02T21:46:33.514Z,99336.34
2023-02-02T21:49:00.810Z,99336.44
2023-02-02T21:51:35.873Z,99332.03
2023-02-02T21:54:17.942Z,99325.25
2023-02-02T21:56:44.382Z,99326.16
2023-02-02T21:59:22.284Z,99328.13
2023-02-02T22:01:50.677Z,99325.63
2023-02-02T22:04:22.215Z,99325.72
2023-02-02T22:06:51.723Z,99326.72
2023-02-02T22:09:24.331Z,99325.00
2023-02-02T22:11:55.273Z,99325.09
2023-02-02T22:14:38.429Z,99315.59
2023-02-02T22:17:14.229Z,99321.69
2023-02-02T22:19:43.373Z,99319.19
2023-02-02T22:22:22.829Z,99325.28
2023-02-02T22:25:31.379Z,99321.72
2023-02-02T22:28:01.387Z,99331.50
2023-02-02T22:30:35.597Z,99331.41
2023-02-02T22:33:02.686Z,99329.63
2023-02-02T22:35:29.514Z,99334.03
2023-02-02T22:37:58.392Z,99332.28
2023-02-02T22:40:25.693Z,99328.78
2023-02-02T22:42:54.430Z,99332.28
2023-02-02T22:45:21.669Z,99331.31
2023-02-02T22:47:48.868Z,99335.84
2023-02-02T22:50:20.699Z,99332.50
2023-02-02T22:52:47.417Z,99321.16
2023-02-02T22:55:18.659Z,99321.38
2023-02-02T22:57:47.733Z,99320.72
2023-02-02T23:00:20.142Z,99299.72
2023-02-02T23:02:46.726Z,99317.28
2023-02-02T23:05:16.450Z,99307.03
2023-02-02T23:07:49.875Z,99301.03
2023-02-02T23:10:26.110Z,99306.25
2023-02-02T23:12:54.948Z,99295.78
2023-02-02T23:15:24.719Z,99298.47
2023-02-02T23:17:56.804Z,99289.00
2023-02-02T23:20:23.749Z,99276.84
2023-02-02T23:22:52.966Z,99273.28
2023-02-02T23:25:19.910Z,99270.53
2023-02-02T23:27:46.481Z,99257.41
2023-02-02T23:30:14.550Z,99256.72
2023-02-02T23:32:41.540Z,99257.69
2023-02-02T23:35:10.564Z,99248.34
2023-02-02T23:37:40.027Z,99239.78
2023-02-02T23:40:07.188Z,99241.63
2023-02-02T23:42:36.121Z,99252.31
2023-02-02T23:45:04.043Z,99248.09
2023-02-02T23:47:32.788Z,99249.13
2023-02-02T23:49:59.442Z,99242.31
2023-02-02T23:52:25.998Z,99238.03
2023-02-02T23:54:52.968Z,99232.00
2023-02-02T23:57:20.143Z,99220.66
2023-02-02T23:59:46.627Z,99218.06
